createdAt,value
2019-02-06T00:01:46.485Z,99.90
2019-02-06T00:04:16.797Z,99.90
2019-02-06T00:06:46.945Z,99.90
2019-02-06T00:09:18.308Z,99.50
2019-02-06T00:11:48.600Z,99.30
2019-02-06T00:14:18.900Z,99.20
2019-02-06T00:16:49.056Z,99.10
2019-02-06T00:19:19.685Z,99.10
2019-02-06T00:21:49.721Z,99.20
2019-02-06T00:24:20.862Z,99.00
2019-02-06T00:26:50.963Z,99.20
2019-02-06T00:29:21.073Z,99.30
2019-02-06T00:31:51.173Z,99.30
2019-02-06T00:34:21.290Z,98.70
2019-02-06T00:36:51.419Z,97.70
2019-02-06T00:39:21.517Z,97.50
2019-02-06T00:41:51.574Z,97.70
2019-02-06T00:44:21.686Z,98.60
2019-02-06T00:46:52.535Z,99.70
2019-02-06T00:49:22.640Z,99.50
2019-02-06T00:51:52.776Z,99.50
2019-02-06T00:54:22.975Z,99.40
2019-02-06T00:56:53.102Z,99.60
2019-02-06T00:59:23.307Z,99.40
2019-02-06T01:01:53.731Z,98.90
2019-02-06T01:04:23.921Z,98.70
2019-02-06T01:06:54.062Z,99.00
2019-02-06T01:09:24.272Z,99.30
2019-02-06T01:11:54.439Z,99.70
2019-02-06T01:14:24.489Z,99.80
2019-02-06T01:16:54.822Z,99.90
2019-02-06T01:19:24.765Z,99.90
2019-02-06T01:21:54.873Z,99.90
2019-02-06T01:24:24.912Z,99.90
2019-02-06T01:26:55.014Z,99.90
2019-02-06T01:29:25.119Z,99.90
2019-02-06T01:31:55.910Z,99.90
2019-02-06T01:34:26.113Z,99.90
2019-02-06T01:36:57.334Z,99.90
2019-02-06T01:39:29.010Z,99.90
2019-02-06T01:41:59.321Z,99.90
2019-02-06T01:44:29.555Z,99.90
2019-02-06T01:46:59.871Z,99.90
2019-02-06T01:49:30.118Z,99.90
2019-02-06T01:52:00.229Z,99.90
2019-02-06T01:54:30.273Z,99.90
2019-02-06T01:57:00.485Z,99.90
2019-02-06T01:59:31.126Z,99.90
2019-02-06T02:02:01.263Z,99.90
2019-02-06T02:04:31.381Z,99.90
2019-02-06T02:07:01.690Z,99.90
2019-02-06T02:09:31.728Z,99.90
2019-02-06T02:12:02.142Z,99.90
2019-02-06T02:14:32.468Z,99.90
2019-02-06T02:17:02.607Z,99.90
2019-02-06T02:19:32.739Z,99.90
2019-02-06T02:22:02.944Z,99.90
2019-02-06T02:24:32.978Z,99.90
2019-02-06T02:27:03.096Z,99.80
2019-02-06T02:29:33.236Z,99.90
2019-02-06T02:32:03.657Z,99.90
2019-02-06T02:34:33.712Z,99.90
2019-02-06T02:37:03.821Z,99.80
2019-02-06T02:39:33.944Z,99.90
2019-02-06T02:42:04.298Z,99.90
2019-02-06T02:44:34.455Z,99.90
2019-02-06T02:47:04.566Z,99.90
2019-02-06T02:49:34.640Z,99.90
2019-02-06T02:52:05.093Z,99.90
2019-02-06T02:54:35.308Z,99.90
2019-02-06T02:57:05.466Z,99.90
2019-02-06T02:59:37.172Z,99.90
2019-02-06T03:02:09.088Z,99.90
2019-02-06T03:04:39.239Z,99.90
2019-02-06T03:07:09.339Z,99.90
2019-02-06T03:09:39.879Z,99.90
2019-02-06T03:12:09.979Z,99.90
2019-02-06T03:14:40.119Z,99.90
2019-02-06T03:17:10.332Z,99.90
2019-02-06T03:19:40.541Z,99.90
2019-02-06T03:22:10.699Z,99.90
2019-02-06T03:24:40.831Z,99.90
2019-02-06T03:27:10.904Z,99.90
2019-02-06T03:29:41.122Z,99.90
2019-02-06T03:32:11.174Z,99.90
2019-02-06T03:34:41.388Z,99.90
2019-02-06T03:37:11.648Z,99.90
2019-02-06T03:39:41.751Z,99.90
2019-02-06T03:42:12.016Z,99.90
2019-02-06T03:44:42.316Z,99.90
2019-02-06T03:47:12.470Z,99.90
2019-02-06T03:49:43.726Z,99.90
2019-02-06T03:52:15.098Z,99.90
2019-02-06T03:54:45.738Z,99.90
2019-02-06T03:57:19.303Z,99.90
2019-02-06T03:59:52.587Z,99.90
2019-02-06T04:02:22.868Z,99.90
2019-02-06T04:04:53.909Z,99.90
2019-02-06T04:07:24.009Z,99.90
2019-02-06T04:09:54.044Z,99.90
2019-02-06T04:12:24.241Z,99.90
2019-02-06T04:14:57.258Z,99.90
2019-02-06T04:17:27.398Z,99.90
2019-02-06T04:20:09.364Z,99.90
2019-02-06T04:22:40.208Z,99.90
2019-02-06T04:25:18.830Z,99.90
2019-02-06T04:27:53.105Z,99.90
2019-02-06T04:30:23.430Z,99.90
2019-02-06T04:33:06.165Z,99.90
2019-02-06T04:35:40.304Z,99.90
2019-02-06T04:38:10.818Z,99.90
2019-02-06T04:43:43.548Z,99.90
2019-02-06T04:46:20.934Z,99.90
2019-02-06T04:48:52.824Z,99.90
2019-02-06T04:51:22.867Z,99.90
2019-02-06T04:53:53.726Z,99.90
2019-02-06T04:56:23.951Z,99.90
2019-02-06T04:58:54.072Z,99.90
2019-02-06T05:01:24.179Z,99.90
2019-02-06T05:03:54.228Z,99.90
2019-02-06T05:06:24.427Z,99.90
2019-02-06T05:08:54.572Z,99.90
2019-02-06T05:11:24.781Z,99.90
2019-02-06T05:19:52.073Z,99.90
2019-02-06T05:22:22.100Z,99.90
2019-02-06T05:24:58.636Z,99.90
2019-02-06T05:27:33.862Z,99.80
2019-02-06T05:30:08.031Z,99.60
2019-02-06T05:32:42.799Z,99.90
2019-02-06T05:35:09.897Z,99.90
2019-02-06T05:37:40.025Z,99.90
2019-02-06T05:40:12.960Z,99.90
2019-02-06T05:42:44.457Z,99.90
2019-02-06T05:45:16.770Z,99.90
2019-02-06T05:47:53.075Z,99.90
2019-02-06T05:50:26.367Z,99.90
2019-02-06T05:58:40.172Z,99.90
2019-02-06T06:01:10.397Z,99.90
2019-02-06T06:03:47.372Z,99.90
2019-02-06T06:06:22.394Z,99.90
2019-02-06T06:08:52.515Z,99.90
2019-02-06T06:11:23.325Z,99.90
2019-02-06T06:13:59.137Z,99.90
2019-02-06T06:16:31.714Z,99.90
2019-02-06T06:19:17.382Z,99.90
2019-02-06T06:21:48.694Z,99.90
2019-02-06T06:24:24.869Z,99.90
2019-02-06T06:26:55.986Z,99.90
2019-02-06T06:29:26.723Z,99.90
2019-02-06T06:31:57.274Z,99.90
2019-02-06T06:34:43.974Z,99.90
2019-02-06T06:45:52.413Z,99.90
2019-02-06T06:48:36.873Z,99.90
2019-02-06T06:51:08.477Z,99.90
2019-02-06T06:53:40.063Z,99.90
2019-02-06T06:56:10.171Z,99.90
2019-02-06T06:58:40.418Z,99.90
2019-02-06T07:01:11.782Z,99.90
2019-02-06T07:03:41.858Z,99.90
2019-02-06T07:06:12.017Z,99.90
